createdAt,value
2023-01-15T00:02:11.140Z,1.57
2023-01-15T00:04:37.580Z,1.60
2023-01-15T00:07:03.997Z,1.51
2023-01-15T00:09:30.414Z,1.45
2023-01-15T00:11:56.753Z,1.51
2023-01-15T00:14:23.100Z,1.43
2023-01-15T00:16:49.434Z,1.57
2023-01-15T00:19:15.784Z,1.59
2023-01-15T00:21:42.171Z,1.69
2023-01-15T00:24:08.514Z,1.75
2023-01-15T00:26:34.885Z,1.80
2023-01-15T00:29:01.223Z,1.55
2023-01-15T00:31:27.627Z,1.68
2023-01-15T00:33:54.001Z,1.70
2023-01-15T00:36:20.334Z,1.71
2023-01-15T00:38:46.673Z,1.71
2023-01-15T00:41:13.049Z,1.67
2023-01-15T00:43:39.406Z,1.67
2023-01-15T00:46:05.758Z,1.53
2023-01-15T00:48:32.227Z,1.45
2023-01-15T00:50:58.625Z,1.51
2023-01-15T00:53:25.020Z,1.55
2023-01-15T00:55:51.418Z,1.50
2023-01-15T00:58:17.809Z,1.53
2023-01-15T01:00:44.237Z,1.36
2023-01-15T01:03:10.619Z,1.33
2023-01-15T01:05:36.969Z,1.31
2023-01-15T01:08:03.295Z,1.41
2023-01-15T01:10:29.949Z,1.29
2023-01-15T01:12:56.399Z,1.18
2023-01-15T01:15:22.799Z,1.12
2023-01-15T01:17:49.183Z,1.10
2023-01-15T01:20:15.568Z,1.18
2023-01-15T01:22:41.956Z,1.00
2023-01-15T01:25:08.302Z,0.93
2023-01-15T01:27:34.660Z,0.98
2023-01-15T01:30:01.041Z,0.90
2023-01-15T01:32:27.383Z,1.05
2023-01-15T01:34:53.715Z,0.82
2023-01-15T01:37:20.098Z,0.92
2023-01-15T01:39:46.449Z,0.88
2023-01-15T01:42:12.855Z,0.76
2023-01-15T01:44:39.244Z,0.78
2023-01-15T01:47:05.631Z,0.79
2023-01-15T01:49:31.968Z,0.96
2023-01-15T01:51:58.343Z,0.79
2023-01-15T01:54:24.724Z,0.95
2023-01-15T01:56:51.058Z,0.77
2023-01-15T01:59:17.428Z,0.68
2023-01-15T02:01:43.859Z,0.63
2023-01-15T02:04:10.335Z,0.75
2023-01-15T02:06:36.721Z,0.77
2023-01-15T02:09:03.071Z,1.01
2023-01-15T02:11:29.431Z,0.82
2023-01-15T02:13:55.823Z,0.78
2023-01-15T02:16:22.339Z,0.62
2023-01-15T02:18:48.729Z,0.72
2023-01-15T02:21:15.108Z,0.69
2023-01-15T02:23:41.445Z,0.82
2023-01-15T02:26:07.785Z,0.73
2023-01-15T02:28:34.134Z,0.71
2023-01-15T02:31:00.468Z,0.71
2023-01-15T02:33:26.801Z,0.66
2023-01-15T02:35:53.122Z,0.72
2023-01-15T02:38:19.488Z,0.81
2023-01-15T02:40:45.840Z,0.80
2023-01-15T02:43:12.231Z,0.76
2023-01-15T02:45:38.641Z,0.69
2023-01-15T02:48:04.990Z,0.79
2023-01-15T02:50:31.324Z,0.86
2023-01-15T02:52:57.823Z,0.80
2023-01-15T02:55:24.168Z,0.82
2023-01-15T02:57:50.547Z,0.83
2023-01-15T03:00:16.895Z,0.85
2023-01-15T03:02:43.240Z,0.71
2023-01-15T03:05:09.617Z,0.85
2023-01-15T03:07:35.981Z,0.89
2023-01-15T03:10:02.319Z,0.80
2023-01-15T03:12:28.696Z,0.88
2023-01-15T03:14:55.033Z,0.81
2023-01-15T03:17:21.365Z,0.87
2023-01-15T03:19:48.842Z,0.78
2023-01-15T03:22:15.221Z,0.88
2023-01-15T03:24:41.589Z,0.79
2023-01-15T03:27:07.918Z,0.81
2023-01-15T03:29:34.306Z,0.83
2023-01-15T03:32:00.702Z,0.77
2023-01-15T03:34:27.084Z,1.03
2023-01-15T03:36:53.469Z,0.98
2023-01-15T03:39:19.857Z,0.90
2023-01-15T03:41:46.214Z,0.95
2023-01-15T03:44:12.549Z,1.00
2023-01-15T03:46:38.932Z,0.95
2023-01-15T03:49:05.282Z,0.90
2023-01-15T03:51:31.610Z,0.92
2023-01-15T03:53:57.982Z,1.04
2023-01-15T03:56:24.394Z,1.02
2023-01-15T03:58:50.743Z,0.98
2023-01-15T04:01:17.168Z,1.00
2023-01-15T04:03:43.577Z,1.07
2023-01-15T04:06:09.934Z,1.15
2023-01-15T04:08:36.303Z,1.10
2023-01-15T04:11:02.653Z,1.04
2023-01-15T04:13:31.211Z,0.99
2023-01-15T04:15:57.962Z,1.02
2023-01-15T04:18:24.321Z,1.07
2023-01-15T04:20:50.660Z,1.03
2023-01-15T04:23:17.038Z,1.08
2023-01-15T04:25:43.436Z,1.10
2023-01-15T04:28:09.844Z,0.98
2023-01-15T04:30:36.191Z,1.10
2023-01-15T04:33:02.569Z,0.95
2023-01-15T04:35:28.975Z,0.84
2023-01-15T04:37:55.315Z,0.89
2023-01-15T04:40:21.645Z,0.97
2023-01-15T04:42:48.016Z,0.93
2023-01-15T04:45:14.393Z,0.86
2023-01-15T04:47:40.778Z,1.00
2023-01-15T04:50:07.123Z,0.89
2023-01-15T04:52:33.499Z,0.82
2023-01-15T04:54:59.881Z,0.81
2023-01-15T04:57:26.267Z,0.69
2023-01-15T04:59:52.625Z,0.83
2023-01-15T05:02:19.126Z,0.85
2023-01-15T05:04:45.663Z,0.75
2023-01-15T05:07:12.042Z,0.79
2023-01-15T05:09:38.427Z,0.76
2023-01-15T05:12:04.801Z,0.81
2023-01-15T05:14:31.192Z,0.77
2023-01-15T05:16:57.597Z,0.76
2023-01-15T05:19:23.949Z,0.77
2023-01-15T05:21:50.291Z,0.77
2023-01-15T05:24:16.621Z,0.77
2023-01-15T05:26:43.017Z,0.82
2023-01-15T05:29:09.350Z,0.71
2023-01-15T05:31:35.674Z,0.74
2023-01-15T05:34:02.053Z,0.66
2023-01-15T05:36:28.484Z,0.79
2023-01-15T05:38:54.866Z,0.73
2023-01-15T05:41:21.243Z,0.73
2023-01-15T05:43:47.581Z,0.64
2023-01-15T05:46:13.977Z,0.67
2023-01-15T05:48:40.371Z,0.86
2023-01-15T05:51:06.765Z,0.68
2023-01-15T05:53:33.097Z,0.60
2023-01-15T05:55:59.480Z,0.53
2023-01-15T05:58:25.838Z,0.69
2023-01-15T06:00:52.208Z,0.65
2023-01-15T06:03:18.605Z,0.65
2023-01-15T06:05:44.962Z,0.64
2023-01-15T06:08:11.353Z,0.67
2023-01-15T06:10:37.729Z,0.64
2023-01-15T06:13:04.076Z,0.54
2023-01-15T06:15:30.500Z,0.61
2023-01-15T06:17:56.906Z,0.65
2023-01-15T06:20:23.248Z,0.75
2023-01-15T06:22:49.578Z,0.77
2023-01-15T06:25:15.906Z,0.65
2023-01-15T06:27:42.238Z,0.71
2023-01-15T06:30:08.613Z,0.95
2023-01-15T06:32:34.999Z,0.82
2023-01-15T06:35:01.388Z,0.93
2023-01-15T06:37:27.721Z,0.74
2023-01-15T06:39:54.100Z,0.91
2023-01-15T06:42:20.486Z,1.03
2023-01-15T06:44:46.878Z,1.18
2023-01-15T06:47:13.275Z,1.28
2023-01-15T06:49:39.664Z,1.22
2023-01-15T06:52:06.061Z,1.25
2023-01-15T06:54:32.453Z,1.29
2023-01-15T06:56:58.852Z,1.44
2023-01-15T06:59:25.250Z,1.41
2023-01-15T07:01:51.681Z,1.28
2023-01-15T07:04:18.055Z,1.21
2023-01-15T07:06:44.438Z,1.28
2023-01-15T07:09:10.803Z,1.33
2023-01-15T07:11:37.197Z,1.23
2023-01-15T07:14:03.544Z,1.36
2023-01-15T07:16:29.921Z,1.34
2023-01-15T07:18:56.274Z,1.19
2023-01-15T07:21:22.657Z,1.49
2023-01-15T07:23:49.002Z,1.28
2023-01-15T07:26:15.386Z,1.53
2023-01-15T07:28:41.739Z,1.50
2023-01-15T07:31:08.102Z,1.34
2023-01-15T07:33:34.468Z,1.31
2023-01-15T07:36:00.862Z,1.30
2023-01-15T07:38:27.214Z,1.31
2023-01-15T07:40:53.592Z,1.45
2023-01-15T07:43:19.976Z,1.48
2023-01-15T07:45:46.453Z,1.58
2023-01-15T07:48:12.848Z,1.52
2023-01-15T07:50:39.195Z,1.48
2023-01-15T07:53:05.581Z,1.52
2023-01-15T07:55:31.931Z,1.33
2023-01-15T07:57:58.276Z,1.49
2023-01-15T08:00:24.638Z,1.50
2023-01-15T08:02:51.107Z,1.53
2023-01-15T08:05:17.523Z,1.39
2023-01-15T08:07:43.899Z,1.48
2023-01-15T08:10:10.238Z,1.53
2023-01-15T08:12:36.619Z,1.53
2023-01-15T08:15:03.008Z,1.55
2023-01-15T08:17:29.345Z,1.55
2023-01-15T08:19:55.737Z,1.53
2023-01-15T08:22:22.116Z,1.56
2023-01-15T08:24:48.520Z,1.32
2023-01-15T08:27:14.861Z,1.43
2023-01-15T08:29:41.235Z,1.32
2023-01-15T08:32:07.587Z,1.28
2023-01-15T08:34:33.927Z,1.23
2023-01-15T08:37:00.429Z,0.92
2023-01-15T08:39:26.851Z,0.68
2023-01-15T08:41:53.199Z,0.58
2023-01-15T08:44:19.535Z,0.43
2023-01-15T08:46:45.913Z,0.48
2023-01-15T08:49:12.300Z,0.62
2023-01-15T08:51:38.698Z,0.46
2023-01-15T08:54:05.085Z,0.52
2023-01-15T08:56:31.427Z,0.61
2023-01-15T08:58:57.822Z,0.63
2023-01-15T09:01:24.316Z,0.58
2023-01-15T09:03:50.781Z,0.29
2023-01-15T09:06:17.102Z,0.48
2023-01-15T09:08:43.476Z,0.16
2023-01-15T09:11:09.818Z,0.10
2023-01-15T09:13:36.169Z,0.19
2023-01-15T09:16:02.541Z,0.21
2023-01-15T09:18:28.932Z,0.21
2023-01-15T09:20:55.312Z,0.11
2023-01-15T09:23:21.726Z,0.11
2023-01-15T09:25:48.242Z,0.07
2023-01-15T09:28:14.614Z,0.14
2023-01-15T09:30:41.075Z,0.14
2023-01-15T09:33:07.438Z,0.10
2023-01-15T09:35:33.838Z,0.11
2023-01-15T09:38:00.223Z,0.12
2023-01-15T09:40:26.609Z,0.09
2023-01-15T09:42:52.985Z,0.14
2023-01-15T09:45:19.345Z,0.09
2023-01-15T09:47:45.686Z,0.13
2023-01-15T09:50:12.079Z,0.11
2023-01-15T09:52:38.439Z,0.11
2023-01-15T09:55:04.771Z,0.11
2023-01-15T09:57:31.147Z,0.09
2023-01-15T09:59:57.499Z,0.08
2023-01-15T10:02:23.866Z,0.10
2023-01-15T10:04:50.225Z,0.08
2023-01-15T10:07:16.597Z,0.12
2023-01-15T10:09:42.930Z,0.11
2023-01-15T10:12:09.311Z,0.13
2023-01-15T10:14:35.712Z,0.13
2023-01-15T10:17:02.062Z,0.14
2023-01-15T10:19:43.803Z,0.53
2023-01-15T10:22:10.615Z,0.15
2023-01-15T10:24:36.958Z,0.83
2023-01-15T10:27:03.333Z,0.17
2023-01-15T10:29:29.689Z,0.11
2023-01-15T10:31:56.057Z,0.10
2023-01-15T10:34:22.411Z,0.07
2023-01-15T10:36:48.793Z,0.08
2023-01-15T10:39:15.133Z,0.26
2023-01-15T10:41:41.472Z,0.20
2023-01-15T10:44:07.802Z,0.27
2023-01-15T10:46:34.190Z,0.42
2023-01-15T10:49:00.600Z,0.40
2023-01-15T10:51:26.982Z,0.43
2023-01-15T10:53:53.330Z,0.33
2023-01-15T10:56:19.707Z,0.27
2023-01-15T10:58:46.062Z,0.25
2023-01-15T11:01:12.469Z,0.21
2023-01-15T11:03:38.897Z,0.21
2023-01-15T11:06:05.250Z,0.16
2023-01-15T11:11:17.934Z,0.12
2023-01-15T11:13:44.330Z,0.13
2023-01-15T11:16:10.719Z,0.10
2023-01-15T11:18:37.108Z,0.14
2023-01-15T11:21:03.474Z,0.13
2023-01-15T11:23:29.839Z,0.11
2023-01-15T11:25:56.200Z,0.13
2023-01-15T11:28:22.578Z,0.16
2023-01-15T11:30:48.989Z,0.29
2023-01-15T11:33:15.375Z,0.24
2023-01-15T11:35:41.710Z,0.23
2023-01-15T11:38:08.047Z,0.15
2023-01-15T11:40:34.420Z,0.14
2023-01-15T11:43:00.761Z,0.14
2023-01-15T11:45:27.129Z,0.14
2023-01-15T11:47:53.499Z,0.07
2023-01-15T11:50:19.881Z,0.12
2023-01-15T11:52:46.227Z,0.11
2023-01-15T11:55:12.553Z,0.11
2023-01-15T11:57:38.922Z,0.11
2023-01-15T12:00:05.301Z,0.12
2023-01-15T12:02:31.710Z,0.11
2023-01-15T12:04:58.099Z,0.11
2023-01-15T12:07:24.469Z,0.13
2023-01-15T12:09:50.814Z,0.06
2023-01-15T12:12:17.191Z,0.20
2023-01-15T12:14:43.583Z,0.14
2023-01-15T12:17:09.933Z,0.13
2023-01-15T12:19:36.319Z,0.11
2023-01-15T12:22:02.683Z,0.12
2023-01-15T12:24:29.074Z,0.17
2023-01-15T12:26:55.481Z,0.08
2023-01-15T12:29:21.828Z,0.22
2023-01-15T12:31:48.214Z,0.13
2023-01-15T12:34:14.602Z,0.10
2023-01-15T12:36:40.994Z,0.15
2023-01-15T12:39:07.347Z,0.15
2023-01-15T12:41:33.694Z,0.09
2023-01-15T12:44:00.104Z,0.10
2023-01-15T12:46:26.461Z,0.14
2023-01-15T12:48:52.798Z,0.11
2023-01-15T12:51:19.133Z,0.09
2023-01-15T12:53:45.481Z,0.09
2023-01-15T12:56:11.861Z,0.15
2023-01-15T12:58:38.287Z,0.17
2023-01-15T13:01:04.778Z,0.21
2023-01-15T13:03:31.171Z,0.26
2023-01-15T13:05:57.526Z,0.22
2023-01-15T13:08:23.895Z,0.16
2023-01-15T13:10:50.247Z,0.15
2023-01-15T13:13:16.595Z,0.20
2023-01-15T13:15:42.945Z,0.16
2023-01-15T13:18:09.296Z,0.15
2023-01-15T13:20:35.641Z,0.24
2023-01-15T13:23:02.019Z,0.30
2023-01-15T13:25:29.796Z,0.27
2023-01-15T13:27:56.325Z,0.28
2023-01-15T13:30:22.718Z,0.35
2023-01-15T13:32:49.086Z,0.29
2023-01-15T13:35:15.662Z,0.40
2023-01-15T13:37:42.178Z,0.34
2023-01-15T13:40:08.576Z,0.26
2023-01-15T13:42:34.978Z,0.26
2023-01-15T13:45:01.408Z,0.41
2023-01-15T13:47:27.795Z,0.41
2023-01-15T13:49:54.188Z,0.46
2023-01-15T13:52:20.585Z,0.38
2023-01-15T13:54:46.937Z,0.41
2023-01-15T13:57:13.281Z,0.36
2023-01-15T13:59:39.668Z,0.46
2023-01-15T14:02:06.039Z,0.43
2023-01-15T14:04:32.389Z,0.57
2023-01-15T14:06:58.717Z,0.56
2023-01-15T14:09:25.091Z,0.55
2023-01-15T14:11:51.475Z,0.62
2023-01-15T14:14:17.855Z,0.50
2023-01-15T14:16:44.276Z,0.64
2023-01-15T14:19:10.655Z,0.52
2023-01-15T14:21:37.056Z,0.74
2023-01-15T14:24:03.425Z,0.61
2023-01-15T14:26:29.840Z,0.52
2023-01-15T14:28:56.180Z,0.55
2023-01-15T14:31:22.610Z,0.43
2023-01-15T14:33:48.984Z,0.39
2023-01-15T14:36:15.361Z,0.38
2023-01-15T14:38:41.740Z,0.36
2023-01-15T14:41:08.083Z,0.36
2023-01-15T14:43:34.520Z,0.32
2023-01-15T14:46:01.031Z,0.34
2023-01-15T14:48:27.407Z,0.46
2023-01-15T14:50:53.818Z,0.61
2023-01-15T14:53:20.214Z,0.53
2023-01-15T14:55:46.574Z,0.49
2023-01-15T14:58:12.966Z,0.59
2023-01-15T15:00:39.309Z,0.56
2023-01-15T15:03:05.711Z,0.50
2023-01-15T15:05:32.072Z,0.41
2023-01-15T15:07:58.415Z,0.43
2023-01-15T15:10:24.787Z,0.50
2023-01-15T15:12:51.173Z,0.50
2023-01-15T15:15:17.533Z,0.43
2023-01-15T15:17:43.925Z,0.42
2023-01-15T15:20:10.307Z,0.47
2023-01-15T15:22:38.515Z,0.53
2023-01-15T15:25:05.205Z,0.54
2023-01-15T15:27:31.558Z,0.68
2023-01-15T15:29:57.911Z,0.55
2023-01-15T15:32:24.257Z,0.54
2023-01-15T15:34:50.598Z,0.77
2023-01-15T15:37:16.973Z,0.84
2023-01-15T15:39:43.321Z,0.73
2023-01-15T15:42:09.663Z,1.09
2023-01-15T15:44:36.048Z,0.90
2023-01-15T15:47:02.444Z,0.87
2023-01-15T15:49:28.790Z,0.61
2023-01-15T15:51:55.155Z,0.61
2023-01-15T15:54:21.577Z,1.11
2023-01-15T15:56:48.001Z,1.14
2023-01-15T15:59:14.336Z,0.79
2023-01-15T16:01:40.748Z,0.88
2023-01-15T16:04:07.188Z,1.36
2023-01-15T16:06:33.529Z,1.14
2023-01-15T16:08:59.965Z,1.23
2023-01-15T16:11:26.347Z,0.95
2023-01-15T16:13:52.685Z,1.07
2023-01-15T16:16:19.095Z,1.00
2023-01-15T16:18:45.474Z,1.25
2023-01-15T16:21:11.837Z,1.45
2023-01-15T16:23:38.223Z,2.85
2023-01-15T16:26:04.629Z,1.24
2023-01-15T16:28:31.042Z,1.40
2023-01-15T16:30:57.449Z,2.07
2023-01-15T16:33:23.903Z,2.17
2023-01-15T16:35:50.289Z,3.06
2023-01-15T16:38:16.686Z,1.83
2023-01-15T16:40:43.029Z,1.85
2023-01-15T16:43:09.422Z,2.42
2023-01-15T16:45:35.801Z,3.04
2023-01-15T16:48:02.198Z,2.22
2023-01-15T16:50:28.541Z,2.16
2023-01-15T16:52:54.933Z,2.12
2023-01-15T16:55:21.298Z,2.48
2023-01-15T16:57:47.657Z,3.84
2023-01-15T17:00:14.040Z,3.45
2023-01-15T17:02:40.729Z,2.17
2023-01-15T17:05:07.119Z,2.42
2023-01-15T17:07:33.460Z,1.62
2023-01-15T17:09:59.809Z,1.92
2023-01-15T17:12:26.150Z,2.26
2023-01-15T17:14:52.498Z,1.95
2023-01-15T17:17:18.835Z,3.97
2023-01-15T17:19:45.214Z,4.95
2023-01-15T17:22:11.647Z,8.62
2023-01-15T17:24:38.030Z,1.53
2023-01-15T17:27:04.443Z,1.11
2023-01-15T17:29:30.822Z,1.02
2023-01-15T17:31:57.166Z,1.07
2023-01-15T17:34:23.549Z,1.11
2023-01-15T17:36:49.897Z,1.17
2023-01-15T17:39:16.237Z,1.31
2023-01-15T17:41:42.620Z,1.53
2023-01-15T17:44:08.965Z,1.59
2023-01-15T17:46:35.375Z,1.54
2023-01-15T17:49:01.727Z,1.47
2023-01-15T17:51:28.082Z,1.74
2023-01-15T17:53:54.456Z,1.67
2023-01-15T17:56:20.861Z,1.74
2023-01-15T17:58:47.261Z,1.70
2023-01-15T18:01:13.726Z,1.76
2023-01-15T18:03:40.186Z,1.64
2023-01-15T18:06:06.580Z,1.52
2023-01-15T18:08:32.963Z,1.62
2023-01-15T18:10:59.343Z,1.44
2023-01-15T18:13:25.702Z,1.43
2023-01-15T18:15:52.059Z,1.48
2023-01-15T18:18:18.418Z,1.53
2023-01-15T18:20:44.830Z,1.47
2023-01-15T18:23:11.196Z,1.59
2023-01-15T18:25:37.534Z,1.47
2023-01-15T18:28:03.877Z,1.61
2023-01-15T18:30:30.307Z,1.69
2023-01-15T18:32:56.667Z,1.59
2023-01-15T18:35:23.004Z,1.46
2023-01-15T18:37:49.371Z,1.71
2023-01-15T18:40:15.734Z,1.53
2023-01-15T18:42:42.109Z,1.38
2023-01-15T18:45:08.505Z,1.34
2023-01-15T18:47:34.862Z,1.34
2023-01-15T18:50:01.210Z,1.49
2023-01-15T18:52:27.563Z,1.57
2023-01-15T18:54:53.932Z,1.55
2023-01-15T18:57:20.324Z,1.52
2023-01-15T18:59:46.661Z,1.78
2023-01-15T19:02:13.103Z,1.65
2023-01-15T19:04:39.505Z,1.80
2023-01-15T19:07:05.860Z,1.77
2023-01-15T19:09:32.231Z,1.82
2023-01-15T19:11:58.618Z,1.71
2023-01-15T19:14:27.055Z,1.75
2023-01-15T19:16:53.571Z,2.09
2023-01-15T19:19:19.962Z,2.14
2023-01-15T19:21:46.322Z,2.56
2023-01-15T19:24:12.713Z,2.46
2023-01-15T19:26:39.063Z,2.22
2023-01-15T19:29:05.452Z,2.41
2023-01-15T19:31:31.831Z,5.99
2023-01-15T19:34:13.245Z,2.75
2023-01-15T19:36:44.679Z,3.08
2023-01-15T19:39:11.086Z,2.92
2023-01-15T19:41:37.464Z,2.71
2023-01-15T19:44:03.812Z,2.30
2023-01-15T19:46:30.216Z,2.53
2023-01-15T19:48:56.571Z,2.64
2023-01-15T19:51:22.931Z,2.54
2023-01-15T19:53:49.300Z,2.63
2023-01-15T19:56:15.708Z,5.21
2023-01-15T19:58:42.122Z,3.18
2023-01-15T20:01:08.668Z,13.06
2023-01-15T20:03:35.210Z,3.34
2023-01-15T20:06:01.588Z,2.79
2023-01-15T20:08:27.980Z,2.90
2023-01-15T20:10:54.323Z,2.98
2023-01-15T20:13:20.675Z,3.34
2023-01-15T20:15:47.015Z,3.75
2023-01-15T20:18:13.365Z,3.57
2023-01-15T20:20:39.721Z,3.88
2023-01-15T20:23:06.056Z,4.34
2023-01-15T20:25:32.453Z,4.14
2023-01-15T20:27:58.806Z,4.33
2023-01-15T20:30:25.250Z,4.49
2023-01-15T20:32:51.597Z,4.62
2023-01-15T20:35:17.977Z,4.46
2023-01-15T20:37:44.355Z,4.64
2023-01-15T20:40:10.819Z,4.88
2023-01-15T20:42:37.179Z,4.68
2023-01-15T20:45:03.536Z,4.92
2023-01-15T20:47:29.879Z,5.16
2023-01-15T20:49:56.355Z,4.76
2023-01-15T20:52:22.729Z,4.73
2023-01-15T20:54:49.108Z,4.64
2023-01-15T20:57:15.542Z,4.31
2023-01-15T20:59:41.933Z,4.38
2023-01-15T21:02:08.385Z,4.28
2023-01-15T21:04:34.827Z,4.10
2023-01-15T21:07:01.196Z,4.45
2023-01-15T21:09:27.576Z,4.03
2023-01-15T21:11:53.945Z,4.04
2023-01-15T21:14:20.294Z,3.71
2023-01-15T21:16:46.671Z,3.60
2023-01-15T21:19:13.096Z,3.46
2023-01-15T21:21:39.493Z,3.31
2023-01-15T21:24:05.863Z,3.62
2023-01-15T21:26:32.259Z,3.49
2023-01-15T21:28:58.595Z,3.66
2023-01-15T21:31:24.957Z,3.71
2023-01-15T21:33:51.295Z,3.31
2023-01-15T21:36:17.676Z,3.29
2023-01-15T21:38:44.090Z,3.23
2023-01-15T21:41:10.500Z,3.32
2023-01-15T21:43:36.876Z,3.37
2023-01-15T21:46:03.321Z,3.36
2023-01-15T21:48:29.709Z,3.24
2023-01-15T21:50:56.041Z,3.00
2023-01-15T21:53:22.374Z,3.91
2023-01-15T21:55:48.716Z,3.72
2023-01-15T21:58:15.083Z,3.71
2023-01-15T22:00:41.499Z,3.79
2023-01-15T22:03:07.851Z,3.73
2023-01-15T22:05:34.242Z,3.60
2023-01-15T22:08:00.661Z,3.63
2023-01-15T22:10:27.025Z,3.97
2023-01-15T22:12:53.365Z,3.90
2023-01-15T22:15:19.731Z,3.89
2023-01-15T22:17:46.062Z,3.84
2023-01-15T22:20:12.454Z,3.88
2023-01-15T22:22:38.853Z,3.62
2023-01-15T22:25:05.233Z,3.54
2023-01-15T22:27:31.597Z,3.24
2023-01-15T22:29:57.947Z,3.48
2023-01-15T22:32:24.321Z,3.31
2023-01-15T22:34:50.708Z,3.44
2023-01-15T22:37:17.097Z,3.42
2023-01-15T22:39:43.453Z,3.11
2023-01-15T22:42:09.796Z,2.82
2023-01-15T22:44:36.197Z,3.15
2023-01-15T22:47:02.575Z,2.99
2023-01-15T22:49:28.952Z,3.08
2023-01-15T22:51:55.336Z,2.95
2023-01-15T22:54:21.728Z,2.99
2023-01-15T22:56:48.128Z,3.05
2023-01-15T22:59:14.536Z,2.87
2023-01-15T23:01:41.010Z,2.82
2023-01-15T23:04:07.473Z,2.63
2023-01-15T23:06:33.849Z,2.69
2023-01-15T23:09:00.192Z,2.37
2023-01-15T23:11:26.544Z,2.40
2023-01-15T23:13:52.892Z,2.50
2023-01-15T23:16:19.229Z,2.24
2023-01-15T23:18:45.580Z,1.98
2023-01-15T23:21:11.925Z,2.01
2023-01-15T23:23:38.307Z,2.10
2023-01-15T23:26:04.703Z,1.99
2023-01-15T23:28:31.047Z,1.95
2023-01-15T23:30:57.445Z,2.05
2023-01-15T23:33:23.807Z,1.94
2023-01-15T23:35:50.188Z,2.02
2023-01-15T23:38:16.540Z,2.07
2023-01-15T23:40:42.918Z,2.15
2023-01-15T23:43:09.257Z,2.07
2023-01-15T23:45:35.649Z,1.95
2023-01-15T23:48:02.052Z,1.87
2023-01-15T23:50:28.441Z,2.17
2023-01-15T23:52:54.788Z,2.13
2023-01-15T23:55:21.133Z,2.14
2023-01-15T23:57:47.505Z,2.04
